X  Κλείσε Στοιχεία αεροπορικών μετεωρολογικών δεδομένων METAR     LZPP Piešťany Airport
θερμοκρασία
70°F θερμοκρασία
55°F Σημείο δρόσου
60% Υγρασία



Ανεμος
7 MPH
11 KM/H
3 M/S
6 KTS



290°
DVD
Τρέχουσες συνθήκες

Συννεφιά Συννεφιά
πίεση 1009.82 (hPa) - 29.82 (inHg)
Ορατότητα 6 (μίλι) - 9.7 (km)
Aεροδρόμιο
Κωδικός αεροδρομίου LZPP

Τοποθεσία: Piešťany Airport
Απόσταση: 31 (mi)

Metar:
LZPP 221430Z 29006KT 250V330 9999 SCT031 21/13 Q1010

ώρα: 22-05-2024 16:30 CEST